sensor_id;sensor_type;location;lat;lon;timestamp;P1;durP1;ratioP1;P2;durP2;ratioP2
21181;SDS011;10749;46.296;7.524;2023-10-31T00:02:24;3.90;;;1.80;;
21181;SDS011;10749;46.296;7.524;2023-10-31T00:04:49;3.60;;;1.73;;
21181;SDS011;10749;46.296;7.524;2023-10-31T00:07:15;2.60;;;1.60;;
21181;SDS011;10749;46.296;7.524;2023-10-31T00:09:40;2.20;;;1.73;;
21181;SDS011;10749;46.296;7.524;2023-10-31T00:12:05;2.30;;;1.80;;
21181;SDS011;10749;46.296;7.524;2023-10-31T00:14:31;2.57;;;1.80;;
21181;SDS011;10749;46.296;7.524;2023-10-31T00:16:57;1.40;;;1.30;;
21181;SDS011;10749;46.296;7.524;2023-10-31T00:19:25;2.20;;;1.47;;
21181;SDS011;10749;46.296;7.524;2023-10-31T00:21:50;2.63;;;1.40;;
21181;SDS011;10749;46.296;7.524;2023-10-31T00:24:16;2.10;;;1.40;;
21181;SDS011;10749;46.296;7.524;2023-10-31T00:26:41;2.90;;;1.50;;
21181;SDS011;10749;46.296;7.524;2023-10-31T00:29:08;2.40;;;1.90;;
21181;SDS011;10749;46.296;7.524;2023-10-31T00:31:33;3.30;;;1.60;;
21181;SDS011;10749;46.296;7.524;2023-10-31T00:34:00;3.47;;;1.80;;
21181;SDS011;10749;46.296;7.524;2023-10-31T00:36:26;2.47;;;1.60;;
21181;SDS011;10749;46.296;7.524;2023-10-31T00:38:52;4.33;;;2.00;;
21181;SDS011;10749;46.296;7.524;2023-10-31T00:41:17;1.97;;;1.40;;
21181;SDS011;10749;46.296;7.524;2023-10-31T00:43:42;2.20;;;1.40;;
21181;SDS011;10749;46.296;7.524;2023-10-31T00:46:07;2.83;;;1.30;;
21181;SDS011;10749;46.296;7.524;2023-10-31T00:48:33;1.57;;;1.10;;
21181;SDS011;10749;46.296;7.524;2023-10-31T00:51:02;2.30;;;1.33;;
21181;SDS011;10749;46.296;7.524;2023-10-31T00:53:28;2.13;;;1.20;;
21181;SDS011;10749;46.296;7.524;2023-10-31T00:55:53;2.57;;;1.50;;
21181;SDS011;10749;46.296;7.524;2023-10-31T00:58:18;2.70;;;1.70;;
21181;SDS011;10749;46.296;7.524;2023-10-31T01:00:44;1.97;;;1.10;;
21181;SDS011;10749;46.296;7.524;2023-10-31T01:03:10;3.37;;;1.30;;
21181;SDS011;10749;46.296;7.524;2023-10-31T01:05:35;1.60;;;1.40;;
21181;SDS011;10749;46.296;7.524;2023-10-31T01:08:00;2.93;;;1.70;;
21181;SDS011;10749;46.296;7.524;2023-10-31T01:10:26;3.40;;;1.70;;
21181;SDS011;10749;46.296;7.524;2023-10-31T01:12:51;2.20;;;1.77;;
21181;SDS011;10749;46.296;7.524;2023-10-31T01:15:16;3.83;;;1.50;;
21181;SDS011;10749;46.296;7.524;2023-10-31T01:17:42;2.40;;;1.67;;
21181;SDS011;10749;46.296;7.524;2023-10-31T01:20:07;2.87;;;1.40;;
21181;SDS011;10749;46.296;7.524;2023-10-31T01:22:34;1.23;;;1.00;;
21181;SDS011;10749;46.296;7.524;2023-10-31T01:24:59;1.60;;;1.10;;
21181;SDS011;10749;46.296;7.524;2023-10-31T01:27:25;1.13;;;1.03;;
21181;SDS011;10749;46.296;7.524;2023-10-31T01:29:50;2.53;;;1.30;;
21181;SDS011;10749;46.296;7.524;2023-10-31T01:32:15;1.70;;;1.20;;
21181;SDS011;10749;46.296;7.524;2023-10-31T01:34:41;2.43;;;1.20;;
21181;SDS011;10749;46.296;7.524;2023-10-31T01:37:06;2.17;;;1.20;;
21181;SDS011;10749;46.296;7.524;2023-10-31T01:39:31;3.10;;;1.17;;
21181;SDS011;10749;46.296;7.524;2023-10-31T01:41:56;1.57;;;1.03;;
21181;SDS011;10749;46.296;7.524;2023-10-31T01:44:22;2.53;;;1.10;;
21181;SDS011;10749;46.296;7.524;2023-10-31T01:46:47;4.10;;;1.07;;
21181;SDS011;10749;46.296;7.524;2023-10-31T01:49:13;2.53;;;1.17;;
21181;SDS011;10749;46.296;7.524;2023-10-31T01:51:40;2.00;;;0.80;;
21181;SDS011;10749;46.296;7.524;2023-10-31T01:54:05;1.07;;;0.77;;
21181;SDS011;10749;46.296;7.524;2023-10-31T01:56:32;2.03;;;1.00;;
21181;SDS011;10749;46.296;7.524;2023-10-31T01:58:57;0.90;;;0.80;;
21181;SDS011;10749;46.296;7.524;2023-10-31T02:01:22;1.97;;;0.90;;
21181;SDS011;10749;46.296;7.524;2023-10-31T02:03:48;1.10;;;0.80;;
21181;SDS011;10749;46.296;7.524;2023-10-31T02:06:13;1.73;;;0.90;;
21181;SDS011;10749;46.296;7.524;2023-10-31T02:08:38;1.20;;;0.77;;
21181;SDS011;10749;46.296;7.524;2023-10-31T02:11:04;1.60;;;0.90;;
21181;SDS011;10749;46.296;7.524;2023-10-31T02:13:30;1.63;;;0.70;;
21181;SDS011;10749;46.296;7.524;2023-10-31T02:15:55;1.40;;;0.83;;
21181;SDS011;10749;46.296;7.524;2023-10-31T02:18:21;0.90;;;0.63;;
21181;SDS011;10749;46.296;7.524;2023-10-31T02:20:46;1.67;;;0.90;;
21181;SDS011;10749;46.296;7.524;2023-10-31T02:23:15;1.03;;;0.80;;
21181;SDS011;10749;46.296;7.524;2023-10-31T02:25:40;1.13;;;0.77;;
21181;SDS011;10749;46.296;7.524;2023-10-31T02:28:06;2.20;;;0.90;;
21181;SDS011;10749;46.296;7.524;2023-10-31T02:30:31;2.17;;;0.80;;
21181;SDS011;10749;46.296;7.524;2023-10-31T02:32:57;0.87;;;0.70;;
21181;SDS011;10749;46.296;7.524;2023-10-31T02:35:22;1.17;;;0.73;;
21181;SDS011;10749;46.296;7.524;2023-10-31T02:37:48;2.50;;;1.00;;
21181;SDS011;10749;46.296;7.524;2023-10-31T02:40:14;1.17;;;0.77;;
21181;SDS011;10749;46.296;7.524;2023-10-31T02:42:39;0.80;;;0.70;;
21181;SDS011;10749;46.296;7.524;2023-10-31T02:45:05;1.70;;;0.90;;
21181;SDS011;10749;46.296;7.524;2023-10-31T02:47:31;1.03;;;0.80;;
21181;SDS011;10749;46.296;7.524;2023-10-31T02:49:56;1.30;;;0.60;;
21181;SDS011;10749;46.296;7.524;2023-10-31T02:52:22;1.87;;;0.80;;
21181;SDS011;10749;46.296;7.524;2023-10-31T02:54:47;2.23;;;1.00;;
21181;SDS011;10749;46.296;7.524;2023-10-31T02:57:13;1.40;;;0.90;;
21181;SDS011;10749;46.296;7.524;2023-10-31T02:59:39;1.23;;;0.80;;
21181;SDS011;10749;46.296;7.524;2023-10-31T03:02:04;1.27;;;0.80;;
21181;SDS011;10749;46.296;7.524;2023-10-31T03:04:29;1.10;;;0.70;;
21181;SDS011;10749;46.296;7.524;2023-10-31T03:06:55;1.03;;;0.83;;
21181;SDS011;10749;46.296;7.524;2023-10-31T03:09:20;2.27;;;0.70;;
21181;SDS011;10749;46.296;7.524;2023-10-31T03:11:45;0.60;;;0.40;;
21181;SDS011;10749;46.296;7.524;2023-10-31T03:14:10;0.70;;;0.47;;
21181;SDS011;10749;46.296;7.524;2023-10-31T03:16:36;1.23;;;0.70;;
21181;SDS011;10749;46.296;7.524;2023-10-31T03:19:01;1.00;;;0.50;;
21181;SDS011;10749;46.296;7.524;2023-10-31T03:21:26;1.07;;;0.50;;
21181;SDS011;10749;46.296;7.524;2023-10-31T03:23:52;1.00;;;0.57;;
21181;SDS011;10749;46.296;7.524;2023-10-31T03:26:18;1.13;;;0.53;;
21181;SDS011;10749;46.296;7.524;2023-10-31T03:28:44;0.50;;;0.40;;
21181;SDS011;10749;46.296;7.524;2023-10-31T03:31:10;0.80;;;0.53;;
21181;SDS011;10749;46.296;7.524;2023-10-31T03:33:36;1.43;;;0.40;;
21181;SDS011;10749;46.296;7.524;2023-10-31T03:36:02;0.63;;;0.40;;
21181;SDS011;10749;46.296;7.524;2023-10-31T03:38:28;1.93;;;0.60;;
21181;SDS011;10749;46.296;7.524;2023-10-31T03:40:53;1.27;;;0.63;;
21181;SDS011;10749;46.296;7.524;2023-10-31T03:43:19;1.47;;;0.50;;
21181;SDS011;10749;46.296;7.524;2023-10-31T03:45:45;1.00;;;0.70;;
21181;SDS011;10749;46.296;7.524;2023-10-31T03:48:12;1.27;;;0.47;;
21181;SDS011;10749;46.296;7.524;2023-10-31T03:50:37;1.70;;;0.50;;
21181;SDS011;10749;46.296;7.524;2023-10-31T03:53:03;5.77;;;0.90;;
21181;SDS011;10749;46.296;7.524;2023-10-31T03:55:28;2.00;;;1.03;;
21181;SDS011;10749;46.296;7.524;2023-10-31T03:57:55;1.17;;;0.70;;
21181;SDS011;10749;46.296;7.524;2023-10-31T04:00:20;1.93;;;0.63;;
21181;SDS011;10749;46.296;7.524;2023-10-31T04:02:45;1.93;;;0.40;;
21181;SDS011;10749;46.296;7.524;2023-10-31T04:05:11;1.77;;;0.43;;
21181;SDS011;10749;46.296;7.524;2023-10-31T04:07:36;1.83;;;0.40;;
21181;SDS011;10749;46.296;7.524;2023-10-31T04:10:03;0.37;;;0.30;;
21181;SDS011;10749;46.296;7.524;2023-10-31T04:12:28;0.87;;;0.40;;
21181;SDS011;10749;46.296;7.524;2023-10-31T04:14:54;0.97;;;0.40;;
21181;SDS011;10749;46.296;7.524;2023-10-31T04:17:19;1.17;;;0.30;;
21181;SDS011;10749;46.296;7.524;2023-10-31T04:19:44;1.07;;;0.20;;
21181;SDS011;10749;46.296;7.524;2023-10-31T04:22:09;0.47;;;0.40;;
21181;SDS011;10749;46.296;7.524;2023-10-31T04:24:35;0.37;;;0.20;;
21181;SDS011;10749;46.296;7.524;2023-10-31T04:27:00;1.03;;;0.47;;
21181;SDS011;10749;46.296;7.524;2023-10-31T04:29:25;1.40;;;0.40;;
21181;SDS011;10749;46.296;7.524;2023-10-31T04:31:51;1.07;;;0.30;;
21181;SDS011;10749;46.296;7.524;2023-10-31T04:34:16;0.73;;;0.50;;
21181;SDS011;10749;46.296;7.524;2023-10-31T04:36:41;1.30;;;0.20;;
21181;SDS011;10749;46.296;7.524;2023-10-31T04:39:07;0.50;;;0.30;;
21181;SDS011;10749;46.296;7.524;2023-10-31T04:41:32;1.67;;;0.40;;
21181;SDS011;10749;46.296;7.524;2023-10-31T04:43:57;0.60;;;0.40;;
21181;SDS011;10749;46.296;7.524;2023-10-31T04:46:24;0.60;;;0.40;;
21181;SDS011;10749;46.296;7.524;2023-10-31T04:48:51;0.97;;;0.40;;
21181;SDS011;10749;46.296;7.524;2023-10-31T04:51:17;1.67;;;0.50;;
21181;SDS011;10749;46.296;7.524;2023-10-31T04:53:42;0.87;;;0.40;;
21181;SDS011;10749;46.296;7.524;2023-10-31T04:56:11;0.57;;;0.37;;
21181;SDS011;10749;46.296;7.524;2023-10-31T04:58:41;1.77;;;0.70;;
21181;SDS011;10749;46.296;7.524;2023-10-31T05:01:10;1.40;;;0.70;;
21181;SDS011;10749;46.296;7.524;2023-10-31T05:03:37;1.73;;;0.40;;
21181;SDS011;10749;46.296;7.524;2023-10-31T05:06:02;0.87;;;0.40;;
21181;SDS011;10749;46.296;7.524;2023-10-31T05:08:28;0.90;;;0.50;;
21181;SDS011;10749;46.296;7.524;2023-10-31T05:10:54;1.60;;;0.70;;
21181;SDS011;10749;46.296;7.524;2023-10-31T05:13:20;0.90;;;0.50;;
21181;SDS011;10749;46.296;7.524;2023-10-31T05:15:45;1.27;;;0.50;;
21181;SDS011;10749;46.296;7.524;2023-10-31T05:18:10;1.37;;;0.50;;
21181;SDS011;10749;46.296;7.524;2023-10-31T05:20:36;0.70;;;0.40;;
21181;SDS011;10749;46.296;7.524;2023-10-31T05:23:01;2.17;;;0.60;;
21181;SDS011;10749;46.296;7.524;2023-10-31T05:25:26;1.23;;;0.60;;
21181;SDS011;10749;46.296;7.524;2023-10-31T05:27:52;1.93;;;0.63;;
21181;SDS011;10749;46.296;7.524;2023-10-31T05:30:17;2.83;;;0.60;;
21181;SDS011;10749;46.296;7.524;2023-10-31T05:32:43;1.53;;;0.70;;
21181;SDS011;10749;46.296;7.524;2023-10-31T05:35:09;1.50;;;0.57;;
21181;SDS011;10749;46.296;7.524;2023-10-31T05:37:35;1.93;;;0.80;;
21181;SDS011;10749;46.296;7.524;2023-10-31T05:40:00;0.97;;;0.47;;
21181;SDS011;10749;46.296;7.524;2023-10-31T05:42:26;2.53;;;0.50;;
21181;SDS011;10749;46.296;7.524;2023-10-31T05:44:52;1.90;;;0.70;;
21181;SDS011;10749;46.296;7.524;2023-10-31T05:47:18;1.53;;;0.40;;
21181;SDS011;10749;46.296;7.524;2023-10-31T05:49:43;1.67;;;0.70;;
21181;SDS011;10749;46.296;7.524;2023-10-31T05:52:09;2.10;;;0.40;;
21181;SDS011;10749;46.296;7.524;2023-10-31T05:54:34;0.50;;;0.30;;
21181;SDS011;10749;46.296;7.524;2023-10-31T05:56:59;1.47;;;0.37;;
21181;SDS011;10749;46.296;7.524;2023-10-31T05:59:25;1.37;;;0.50;;
21181;SDS011;10749;46.296;7.524;2023-10-31T06:01:50;0.57;;;0.43;;
21181;SDS011;10749;46.296;7.524;2023-10-31T06:04:15;1.50;;;0.70;;
21181;SDS011;10749;46.296;7.524;2023-10-31T06:06:41;2.40;;;0.60;;
21181;SDS011;10749;46.296;7.524;2023-10-31T06:09:06;3.00;;;0.60;;
21181;SDS011;10749;46.296;7.524;2023-10-31T06:11:31;0.80;;;0.43;;
21181;SDS011;10749;46.296;7.524;2023-10-31T06:13:58;0.83;;;0.40;;
21181;SDS011;10749;46.296;7.524;2023-10-31T06:16:24;0.80;;;0.43;;
21181;SDS011;10749;46.296;7.524;2023-10-31T06:18:49;1.67;;;0.90;;
21181;SDS011;10749;46.296;7.524;2023-10-31T06:21:15;0.97;;;0.40;;
21181;SDS011;10749;46.296;7.524;2023-10-31T06:23:40;4.30;;;1.17;;
21181;SDS011;10749;46.296;7.524;2023-10-31T06:26:07;3.70;;;1.20;;
21181;SDS011;10749;46.296;7.524;2023-10-31T06:28:33;3.47;;;1.70;;
21181;SDS011;10749;46.296;7.524;2023-10-31T06:31:00;3.03;;;1.03;;
21181;SDS011;10749;46.296;7.524;2023-10-31T06:33:26;1.30;;;0.60;;
21181;SDS011;10749;46.296;7.524;2023-10-31T06:35:52;2.80;;;1.00;;
21181;SDS011;10749;46.296;7.524;2023-10-31T06:38:18;2.80;;;0.67;;
21181;SDS011;10749;46.296;7.524;2023-10-31T06:40:44;3.10;;;1.10;;
21181;SDS011;10749;46.296;7.524;2023-10-31T06:43:10;2.47;;;1.20;;
21181;SDS011;10749;46.296;7.524;2023-10-31T06:45:35;2.00;;;1.00;;
21181;SDS011;10749;46.296;7.524;2023-10-31T06:48:01;3.03;;;0.90;;
21181;SDS011;10749;46.296;7.524;2023-10-31T06:50:27;1.77;;;0.80;;
21181;SDS011;10749;46.296;7.524;2023-10-31T06:52:53;2.00;;;0.60;;
21181;SDS011;10749;46.296;7.524;2023-10-31T06:55:18;2.00;;;0.70;;
21181;SDS011;10749;46.296;7.524;2023-10-31T06:57:44;0.90;;;0.50;;
21181;SDS011;10749;46.296;7.524;2023-10-31T07:00:10;1.33;;;0.80;;
21181;SDS011;10749;46.296;7.524;2023-10-31T07:02:36;1.87;;;0.77;;
21181;SDS011;10749;46.296;7.524;2023-10-31T07:05:01;1.97;;;0.83;;
21181;SDS011;10749;46.296;7.524;2023-10-31T07:07:28;2.23;;;0.57;;
21181;SDS011;10749;46.296;7.524;2023-10-31T07:09:53;1.10;;;0.60;;
21181;SDS011;10749;46.296;7.524;2023-10-31T07:12:19;2.23;;;0.60;;
21181;SDS011;10749;46.296;7.524;2023-10-31T07:14:44;2.40;;;0.50;;
21181;SDS011;10749;46.296;7.524;2023-10-31T07:17:09;1.73;;;0.60;;
21181;SDS011;10749;46.296;7.524;2023-10-31T07:19:34;3.60;;;0.80;;
21181;SDS011;10749;46.296;7.524;2023-10-31T07:22:00;4.23;;;0.80;;
21181;SDS011;10749;46.296;7.524;2023-10-31T07:24:25;1.83;;;0.50;;
21181;SDS011;10749;46.296;7.524;2023-10-31T07:26:52;3.60;;;0.40;;
21181;SDS011;10749;46.296;7.524;2023-10-31T07:29:18;1.40;;;0.60;;
21181;SDS011;10749;46.296;7.524;2023-10-31T07:31:43;2.17;;;0.53;;
21181;SDS011;10749;46.296;7.524;2023-10-31T07:34:09;0.70;;;0.50;;
21181;SDS011;10749;46.296;7.524;2023-10-31T07:36:36;1.13;;;0.50;;
21181;SDS011;10749;46.296;7.524;2023-10-31T07:39:01;1.93;;;0.60;;
21181;SDS011;10749;46.296;7.524;2023-10-31T07:41:28;1.20;;;0.50;;
21181;SDS011;10749;46.296;7.524;2023-10-31T07:43:54;1.77;;;0.37;;
21181;SDS011;10749;46.296;7.524;2023-10-31T07:46:19;1.23;;;0.53;;
21181;SDS011;10749;46.296;7.524;2023-10-31T07:48:44;3.00;;;0.73;;
21181;SDS011;10749;46.296;7.524;2023-10-31T07:51:10;2.07;;;0.60;;
21181;SDS011;10749;46.296;7.524;2023-10-31T07:53:35;2.10;;;0.80;;
21181;SDS011;10749;46.296;7.524;2023-10-31T07:56:00;4.37;;;0.97;;
21181;SDS011;10749;46.296;7.524;2023-10-31T07:58:26;1.97;;;0.80;;
21181;SDS011;10749;46.296;7.524;2023-10-31T08:00:51;2.00;;;0.60;;
21181;SDS011;10749;46.296;7.524;2023-10-31T08:03:16;1.00;;;0.77;;
21181;SDS011;10749;46.296;7.524;2023-10-31T08:05:42;1.50;;;0.70;;
21181;SDS011;10749;46.296;7.524;2023-10-31T08:08:07;1.47;;;0.80;;
21181;SDS011;10749;46.296;7.524;2023-10-31T08:10:32;3.03;;;1.00;;
21181;SDS011;10749;46.296;7.524;2023-10-31T08:12:59;1.33;;;0.70;;
21181;SDS011;10749;46.296;7.524;2023-10-31T08:15:24;2.40;;;0.70;;
21181;SDS011;10749;46.296;7.524;2023-10-31T08:17:50;3.10;;;1.00;;
21181;SDS011;10749;46.296;7.524;2023-10-31T08:20:15;2.07;;;0.70;;
21181;SDS011;10749;46.296;7.524;2023-10-31T08:22:40;2.40;;;1.00;;
21181;SDS011;10749;46.296;7.524;2023-10-31T08:25:07;2.20;;;0.90;;
21181;SDS011;10749;46.296;7.524;2023-10-31T08:27:33;2.67;;;1.10;;
21181;SDS011;10749;46.296;7.524;2023-10-31T08:29:59;3.10;;;1.70;;
21181;SDS011;10749;46.296;7.524;2023-10-31T08:32:24;1.97;;;0.77;;
21181;SDS011;10749;46.296;7.524;2023-10-31T08:34:49;6.67;;;1.13;;
21181;SDS011;10749;46.296;7.524;2023-10-31T08:37:15;3.17;;;0.90;;
21181;SDS011;10749;46.296;7.524;2023-10-31T08:39:40;2.67;;;1.10;;
21181;SDS011;10749;46.296;7.524;2023-10-31T08:42:06;2.97;;;1.10;;
21181;SDS011;10749;46.296;7.524;2023-10-31T08:44:31;3.00;;;1.47;;
21181;SDS011;10749;46.296;7.524;2023-10-31T08:46:58;2.17;;;0.97;;
21181;SDS011;10749;46.296;7.524;2023-10-31T08:49:24;2.43;;;1.03;;
21181;SDS011;10749;46.296;7.524;2023-10-31T08:51:49;3.57;;;1.40;;
21181;SDS011;10749;46.296;7.524;2023-10-31T08:54:14;4.07;;;1.50;;
21181;SDS011;10749;46.296;7.524;2023-10-31T08:56:40;3.47;;;1.60;;
21181;SDS011;10749;46.296;7.524;2023-10-31T08:59:05;2.50;;;1.27;;
21181;SDS011;10749;46.296;7.524;2023-10-31T09:01:30;4.17;;;0.90;;
21181;SDS011;10749;46.296;7.524;2023-10-31T09:03:58;2.47;;;1.23;;
21181;SDS011;10749;46.296;7.524;2023-10-31T09:06:24;2.53;;;0.93;;
21181;SDS011;10749;46.296;7.524;2023-10-31T09:08:49;4.20;;;0.90;;
21181;SDS011;10749;46.296;7.524;2023-10-31T09:11:15;1.30;;;0.80;;
21181;SDS011;10749;46.296;7.524;2023-10-31T09:13:40;1.80;;;0.70;;
21181;SDS011;10749;46.296;7.524;2023-10-31T09:16:05;2.30;;;0.80;;
21181;SDS011;10749;46.296;7.524;2023-10-31T09:18:31;2.43;;;1.00;;
21181;SDS011;10749;46.296;7.524;2023-10-31T09:20:56;5.47;;;0.90;;
21181;SDS011;10749;46.296;7.524;2023-10-31T09:23:22;2.00;;;0.70;;
21181;SDS011;10749;46.296;7.524;2023-10-31T09:25:47;3.17;;;0.90;;
21181;SDS011;10749;46.296;7.524;2023-10-31T09:28:13;2.47;;;0.90;;
21181;SDS011;10749;46.296;7.524;2023-10-31T09:30:38;5.87;;;1.07;;
21181;SDS011;10749;46.296;7.524;2023-10-31T09:33:04;3.43;;;1.10;;
21181;SDS011;10749;46.296;7.524;2023-10-31T09:35:29;1.73;;;0.80;;
21181;SDS011;10749;46.296;7.524;2023-10-31T09:37:54;4.57;;;0.87;;
21181;SDS011;10749;46.296;7.524;2023-10-31T09:40:20;2.83;;;0.73;;
21181;SDS011;10749;46.296;7.524;2023-10-31T09:42:46;1.93;;;0.87;;
21181;SDS011;10749;46.296;7.524;2023-10-31T09:45:11;4.73;;;0.90;;
21181;SDS011;10749;46.296;7.524;2023-10-31T09:47:37;2.73;;;0.97;;
21181;SDS011;10749;46.296;7.524;2023-10-31T09:50:03;2.73;;;0.70;;
21181;SDS011;10749;46.296;7.524;2023-10-31T09:52:29;2.20;;;0.87;;
21181;SDS011;10749;46.296;7.524;2023-10-31T09:54:54;4.17;;;0.80;;
21181;SDS011;10749;46.296;7.524;2023-10-31T09:57:21;1.60;;;0.83;;
21181;SDS011;10749;46.296;7.524;2023-10-31T09:59:46;5.93;;;0.90;;
21181;SDS011;10749;46.296;7.524;2023-10-31T10:02:11;3.80;;;0.83;;
21181;SDS011;10749;46.296;7.524;2023-10-31T10:04:37;4.47;;;2.23;;
21181;SDS011;10749;46.296;7.524;2023-10-31T10:07:03;2.53;;;0.90;;
21181;SDS011;10749;46.296;7.524;2023-10-31T10:09:29;3.07;;;0.70;;
21181;SDS011;10749;46.296;7.524;2023-10-31T10:11:58;4.57;;;2.67;;
21181;SDS011;10749;46.296;7.524;2023-10-31T10:14:25;1.63;;;0.60;;
21181;SDS011;10749;46.296;7.524;2023-10-31T10:16:53;2.83;;;0.60;;
21181;SDS011;10749;46.296;7.524;2023-10-31T10:19:19;2.23;;;0.70;;
21181;SDS011;10749;46.296;7.524;2023-10-31T10:24:16;2.50;;;0.60;;
21181;SDS011;10749;46.296;7.524;2023-10-31T10:26:42;3.90;;;0.70;;
21181;SDS011;10749;46.296;7.524;2023-10-31T10:29:08;2.73;;;0.60;;
21181;SDS011;10749;46.296;7.524;2023-10-31T10:31:33;2.77;;;0.60;;
21181;SDS011;10749;46.296;7.524;2023-10-31T10:33:59;1.50;;;0.50;;
21181;SDS011;10749;46.296;7.524;2023-10-31T10:36:26;0.87;;;0.50;;
21181;SDS011;10749;46.296;7.524;2023-10-31T10:38:53;1.50;;;0.50;;
21181;SDS011;10749;46.296;7.524;2023-10-31T10:41:21;2.03;;;0.60;;
21181;SDS011;10749;46.296;7.524;2023-10-31T10:43:50;1.03;;;0.60;;
21181;SDS011;10749;46.296;7.524;2023-10-31T10:46:21;2.50;;;0.67;;
21181;SDS011;10749;46.296;7.524;2023-10-31T10:48:50;4.57;;;0.50;;
21181;SDS011;10749;46.296;7.524;2023-10-31T10:51:24;1.43;;;0.50;;
21181;SDS011;10749;46.296;7.524;2023-10-31T10:54:10;2.63;;;0.50;;
21181;SDS011;10749;46.296;7.524;2023-10-31T10:56:41;1.93;;;0.60;;
21181;SDS011;10749;46.296;7.524;2023-10-31T10:59:14;1.63;;;0.50;;
21181;SDS011;10749;46.296;7.524;2023-10-31T11:01:45;2.60;;;0.50;;
21181;SDS011;10749;46.296;7.524;2023-10-31T11:04:12;1.07;;;0.53;;
21181;SDS011;10749;46.296;7.524;2023-10-31T11:06:38;0.53;;;0.37;;
21181;SDS011;10749;46.296;7.524;2023-10-31T11:09:04;1.23;;;0.40;;
21181;SDS011;10749;46.296;7.524;2023-10-31T11:11:31;1.20;;;0.40;;
21181;SDS011;10749;46.296;7.524;2023-10-31T11:13:57;3.33;;;0.70;;
21181;SDS011;10749;46.296;7.524;2023-10-31T11:16:26;1.40;;;0.50;;
21181;SDS011;10749;46.296;7.524;2023-10-31T11:18:59;1.20;;;0.60;;
21181;SDS011;10749;46.296;7.524;2023-10-31T11:21:24;1.27;;;0.50;;
21181;SDS011;10749;46.296;7.524;2023-10-31T11:23:59;1.17;;;0.50;;
21181;SDS011;10749;46.296;7.524;2023-10-31T11:26:26;3.20;;;0.73;;
21181;SDS011;10749;46.296;7.524;2023-10-31T11:28:51;0.70;;;0.60;;
21181;SDS011;10749;46.296;7.524;2023-10-31T11:31:16;2.33;;;0.70;;
21181;SDS011;10749;46.296;7.524;2023-10-31T11:33:42;3.53;;;0.70;;
21181;SDS011;10749;46.296;7.524;2023-10-31T11:36:08;2.70;;;0.60;;
21181;SDS011;10749;46.296;7.524;2023-10-31T11:38:36;1.20;;;0.50;;
21181;SDS011;10749;46.296;7.524;2023-10-31T11:41:03;3.23;;;0.67;;
21181;SDS011;10749;46.296;7.524;2023-10-31T11:44:03;1.53;;;0.60;;
21181;SDS011;10749;46.296;7.524;2023-10-31T11:46:22;0.73;;;0.40;;
21181;SDS011;10749;46.296;7.524;2023-10-31T11:48:53;1.00;;;0.50;;
21181;SDS011;10749;46.296;7.524;2023-10-31T11:51:22;1.23;;;0.37;;
21181;SDS011;10749;46.296;7.524;2023-10-31T11:53:48;2.43;;;0.60;;
21181;SDS011;10749;46.296;7.524;2023-10-31T11:56:14;0.30;;;0.13;;
21181;SDS011;10749;46.296;7.524;2023-10-31T11:58:41;1.17;;;0.40;;
21181;SDS011;10749;46.296;7.524;2023-10-31T12:01:09;1.27;;;0.50;;
21181;SDS011;10749;46.296;7.524;2023-10-31T12:03:39;1.90;;;0.93;;
21181;SDS011;10749;46.296;7.524;2023-10-31T12:06:11;1.57;;;0.80;;
21181;SDS011;10749;46.296;7.524;2023-10-31T12:08:37;1.50;;;0.93;;
21181;SDS011;10749;46.296;7.524;2023-10-31T12:16:19;0.67;;;0.20;;
21181;SDS011;10749;46.296;7.524;2023-10-31T12:18:53;1.83;;;0.40;;
21181;SDS011;10749;46.296;7.524;2023-10-31T12:21:19;2.17;;;0.40;;
21181;SDS011;10749;46.296;7.524;2023-10-31T12:23:44;1.00;;;0.50;;
21181;SDS011;10749;46.296;7.524;2023-10-31T12:26:11;2.10;;;0.60;;
21181;SDS011;10749;46.296;7.524;2023-10-31T12:28:36;0.77;;;0.60;;
21181;SDS011;10749;46.296;7.524;2023-10-31T12:31:03;0.47;;;0.23;;
21181;SDS011;10749;46.296;7.524;2023-10-31T12:33:28;2.77;;;0.57;;
21181;SDS011;10749;46.296;7.524;2023-10-31T12:36:00;1.40;;;0.40;;
21181;SDS011;10749;46.296;7.524;2023-10-31T12:38:26;1.90;;;0.30;;
21181;SDS011;10749;46.296;7.524;2023-10-31T12:40:52;0.40;;;0.30;;
21181;SDS011;10749;46.296;7.524;2023-10-31T12:43:18;1.07;;;0.30;;
21181;SDS011;10749;46.296;7.524;2023-10-31T12:45:43;1.50;;;0.40;;
21181;SDS011;10749;46.296;7.524;2023-10-31T12:48:09;0.47;;;0.40;;
21181;SDS011;10749;46.296;7.524;2023-10-31T12:50:37;1.90;;;0.30;;
21181;SDS011;10749;46.296;7.524;2023-10-31T12:53:04;1.80;;;0.30;;
21181;SDS011;10749;46.296;7.524;2023-10-31T12:55:31;1.10;;;0.27;;
21181;SDS011;10749;46.296;7.524;2023-10-31T12:58:03;1.13;;;0.40;;
21181;SDS011;10749;46.296;7.524;2023-10-31T13:00:32;0.77;;;0.20;;
21181;SDS011;10749;46.296;7.524;2023-10-31T13:03:00;0.70;;;0.23;;
21181;SDS011;10749;46.296;7.524;2023-10-31T13:05:30;1.97;;;0.67;;
21181;SDS011;10749;46.296;7.524;2023-10-31T13:07:56;2.53;;;1.50;;
21181;SDS011;10749;46.296;7.524;2023-10-31T13:10:26;4.27;;;2.60;;
21181;SDS011;10749;46.296;7.524;2023-10-31T13:12:53;4.10;;;2.37;;
21181;SDS011;10749;46.296;7.524;2023-10-31T13:15:20;7.10;;;1.50;;
21181;SDS011;10749;46.296;7.524;2023-10-31T13:17:47;2.90;;;2.17;;
21181;SDS011;10749;46.296;7.524;2023-10-31T13:20:14;0.87;;;0.67;;
21181;SDS011;10749;46.296;7.524;2023-10-31T13:22:41;0.97;;;0.50;;
21181;SDS011;10749;46.296;7.524;2023-10-31T13:25:07;0.80;;;0.40;;
21181;SDS011;10749;46.296;7.524;2023-10-31T13:27:36;0.87;;;0.30;;
21181;SDS011;10749;46.296;7.524;2023-10-31T13:30:02;0.97;;;0.40;;
21181;SDS011;10749;46.296;7.524;2023-10-31T13:32:31;0.50;;;0.40;;
21181;SDS011;10749;46.296;7.524;2023-10-31T13:34:56;0.93;;;0.40;;
21181;SDS011;10749;46.296;7.524;2023-10-31T13:37:22;1.17;;;0.60;;
21181;SDS011;10749;46.296;7.524;2023-10-31T13:39:47;2.00;;;0.60;;
21181;SDS011;10749;46.296;7.524;2023-10-31T13:42:13;0.67;;;0.50;;
21181;SDS011;10749;46.296;7.524;2023-10-31T13:44:41;0.87;;;0.43;;
21181;SDS011;10749;46.296;7.524;2023-10-31T13:47:07;0.67;;;0.40;;
21181;SDS011;10749;46.296;7.524;2023-10-31T13:49:32;1.43;;;0.53;;
21181;SDS011;10749;46.296;7.524;2023-10-31T13:51:58;0.80;;;0.50;;
21181;SDS011;10749;46.296;7.524;2023-10-31T13:54:24;1.30;;;0.70;;
21181;SDS011;10749;46.296;7.524;2023-10-31T13:56:49;1.23;;;0.60;;
21181;SDS011;10749;46.296;7.524;2023-10-31T13:59:14;1.83;;;0.30;;
21181;SDS011;10749;46.296;7.524;2023-10-31T14:01:40;0.97;;;0.43;;
21181;SDS011;10749;46.296;7.524;2023-10-31T14:04:06;1.40;;;0.50;;
21181;SDS011;10749;46.296;7.524;2023-10-31T14:06:32;2.07;;;0.70;;
21181;SDS011;10749;46.296;7.524;2023-10-31T14:08:58;1.00;;;0.70;;
21181;SDS011;10749;46.296;7.524;2023-10-31T14:11:24;0.97;;;0.70;;
21181;SDS011;10749;46.296;7.524;2023-10-31T14:13:50;1.03;;;0.50;;
21181;SDS011;10749;46.296;7.524;2023-10-31T14:16:15;0.60;;;0.30;;
21181;SDS011;10749;46.296;7.524;2023-10-31T14:18:41;0.53;;;0.20;;
21181;SDS011;10749;46.296;7.524;2023-10-31T14:21:07;0.87;;;0.30;;
21181;SDS011;10749;46.296;7.524;2023-10-31T14:23:33;0.53;;;0.30;;
21181;SDS011;10749;46.296;7.524;2023-10-31T14:25:58;0.50;;;0.30;;
21181;SDS011;10749;46.296;7.524;2023-10-31T14:28:24;1.00;;;0.27;;
21181;SDS011;10749;46.296;7.524;2023-10-31T14:30:49;0.83;;;0.30;;
21181;SDS011;10749;46.296;7.524;2023-10-31T14:33:17;2.93;;;0.60;;
21181;SDS011;10749;46.296;7.524;2023-10-31T14:35:42;2.43;;;0.40;;
21181;SDS011;10749;46.296;7.524;2023-10-31T14:38:08;1.37;;;0.50;;
21181;SDS011;10749;46.296;7.524;2023-10-31T14:40:33;0.67;;;0.40;;
21181;SDS011;10749;46.296;7.524;2023-10-31T14:42:58;2.07;;;0.43;;
21181;SDS011;10749;46.296;7.524;2023-10-31T14:45:24;1.37;;;0.60;;
21181;SDS011;10749;46.296;7.524;2023-10-31T14:47:49;0.50;;;0.30;;
21181;SDS011;10749;46.296;7.524;2023-10-31T14:50:14;1.07;;;0.30;;